Time;durP1;ratioP1;P1;durP2;ratioP2;P2;SDS_P1;SDS_P2;PMS_P1;PMS_P2;Temp;Humidity;BMP_temperature;BMP_pressure;BME280_temperature;BME280_humidity;BME280_pressure;Samples;Min_cycle;Max_cycle;Signal;HPM_P1;HPM_P2
2022/06/30 06:25:48;;;;;;;107.40;7.78;;;;;;;20.58;64.86;96111.00;2124377;27;20573;-68
2022/06/30 06:26:50;;;;;;;103.93;13.38;;;;;;;20.79;64.13;96118.78;2111028;28;20289;-67
2022/06/30 06:29:15;;;;;;;139.02;67.30;;;;;;;21.35;63.71;96188.69;2104871;28;20194;-67
2022/06/30 06:30:20;;;;;;;211.90;175.82;;;;;;;21.40;63.54;96184.78;2102260;28;20203;-68
2022/06/30 06:31:21;;;;;;;175.52;123.65;;;;;;;21.53;64.06;96185.25;2103364;28;20682;-68
2022/06/30 06:32:24;;;;;;;177.93;138.77;;;;;;;21.67;63.66;96178.63;2091147;28;20304;-66
2022/06/30 06:33:27;;;;;;;197.32;170.52;;;;;;;21.67;63.39;96168.00;2102677;28;20203;-66
2022/06/30 07:03:08;;;;;;;108.35;6.05;;;;;;;23.20;58.56;96166.09;2080242;28;21106;-64
2022/06/30 07:04:09;;;;;;;111.30;9.30;;;;;;;23.28;57.83;96192.75;2087566;28;20247;-66
2022/06/30 07:05:11;;;;;;;105.97;6.32;;;;;;;23.37;59.28;96187.50;2072280;28;20212;-64
2022/06/30 07:06:12;;;;;;;107.15;6.20;;;;;;;23.60;58.81;96188.59;2071076;28;20675;-64
2022/06/30 07:07:14;;;;;;;120.90;26.05;;;;;;;23.67;57.74;96183.44;2071844;28;20200;-65
2022/06/30 07:08:15;;;;;;;115.72;21.92;;;;;;;23.64;57.47;96181.94;2052422;28;20230;-64
2022/06/30 07:09:17;;;;;;;119.13;27.05;;;;;;;23.73;56.99;96195.28;2063622;28;20202;-64
2022/06/30 07:10:18;;;;;;;116.80;21.70;;;;;;;23.87;56.81;96172.47;2066561;28;20205;-64
2022/06/30 07:11:19;;;;;;;108.13;6.35;;;;;;;23.69;55.45;96194.75;2066126;28;20205;-64
2022/06/30 07:12:21;;;;;;;109.57;6.63;;;;;;;23.68;55.38;96187.78;2067244;28;20206;-64
2022/06/30 07:37:28;;;;;;;116.47;6.75;;;;;;;24.37;54.92;96170.75;2082298;27;21095;-64
2022/06/30 07:38:30;;;;;;;113.93;16.48;;;;;;;24.48;55.49;96183.78;2078845;28;20204;-63
2022/06/30 07:39:32;;;;;;;115.53;16.77;;;;;;;24.50;55.33;96178.25;2076648;28;20197;-64
2022/06/30 07:40:35;;;;;;;114.88;16.30;;;;;;;24.40;55.49;96149.06;2068797;28;20205;-64
2022/06/30 07:41:38;;;;;;;111.18;6.53;;;;;;;24.39;55.33;96174.06;2069507;28;20670;-64
2022/06/30 07:42:39;;;;;;;118.15;21.73;;;;;;;24.60;56.14;96170.91;2059119;28;20280;-64
2022/06/30 07:43:41;;;;;;;115.32;13.73;;;;;;;24.84;55.49;96172.75;2068916;28;20202;-64
2022/06/30 07:44:43;;;;;;;114.90;7.45;;;;;;;24.65;54.58;96146.44;2070060;28;20312;-64
2022/06/30 07:45:45;;;;;;;111.45;6.85;;;;;;;24.55;55.09;96168.75;2057772;28;20198;-64
2022/06/30 07:46:46;;;;;;;119.20;8.15;;;;;;;24.62;54.79;96161.75;2059237;28;20225;-64
2022/06/30 07:47:48;;;;;;;119.03;9.27;;;;;;;24.44;54.98;96164.59;2060674;28;20352;-64
2022/06/30 07:48:50;;;;;;;117.13;9.57;;;;;;;24.27;53.10;96096.22;2071724;28;20204;-64
2022/06/30 08:15:01;;;;;;;111.20;7.10;;;;;;;25.18;53.54;96169.00;2082156;27;20577;-62
2022/06/30 08:16:03;;;;;;;113.18;7.65;;;;;;;25.21;53.36;96171.31;2072804;28;20319;-62
2022/06/30 08:17:05;;;;;;;116.28;9.43;;;;;;;25.12;52.42;96172.34;2072399;28;20194;-62
2022/06/30 08:18:08;;;;;;;114.18;10.40;;;;;;;24.98;52.19;96183.75;2061923;28;20269;-62
2022/06/30 08:19:09;;;;;;;118.75;10.25;;;;;;;25.20;51.53;96177.66;2070009;28;20197;-62
2022/06/30 08:20:11;;;;;;;114.65;9.55;;;;;;;25.10;51.86;96179.69;2063240;28;20205;-62
2022/06/30 08:21:12;;;;;;;114.47;6.97;;;;;;;25.00;51.39;96171.91;2061397;28;20534;-63
2022/06/30 08:22:14;;;;;;;127.57;22.52;;;;;;;24.74;51.09;96174.78;2062550;28;20199;-62
2022/06/30 08:23:15;;;;;;;119.80;7.47;;;;;;;25.18;51.92;96170.81;2045935;28;20242;-63
2022/06/30 08:24:17;;;;;;;113.97;9.85;;;;;;;25.33;52.26;96146.91;2055241;28;20210;-63
2022/06/30 08:46:51;;;;;;;118.45;11.27;;;;;;;25.61;48.35;96158.00;2101763;27;20572;-62
2022/06/30 08:47:53;;;;;;;126.63;31.98;;;;;;;25.61;48.36;96158.00;2083121;28;20215;-62
2022/06/30 08:48:54;;;;;;;111.53;9.02;;;;;;;26.06;47.83;96131.53;2090959;28;20207;-62
2022/06/30 08:49:56;;;;;;;114.82;5.80;;;;;;;26.81;46.83;96132.56;2093112;28;20227;-62
2022/06/30 08:51:03;;;;;;;120.50;14.35;;;;;;;27.44;45.21;96155.50;2093032;28;20199;-62
2022/06/30 08:52:05;;;;;;;127.65;20.27;;;;;;;28.01;44.38;96149.38;2088151;28;20583;-62
2022/06/30 08:53:09;;;;;;;120.35;24.77;;;;;;;28.12;45.24;96163.34;2084009;28;20224;-62
2022/06/30 08:54:11;;;;;;;132.40;38.85;;;;;;;27.62;43.38;96150.59;2090269;28;20200;-63
2022/06/30 08:55:14;;;;;;;126.80;14.55;;;;;;;26.56;45.06;96158.72;2087620;28;20231;-62
2022/06/30 08:56:17;;;;;;;115.15;13.90;;;;;;;26.04;44.77;96158.44;2085774;28;20550;-62
2022/06/30 08:57:20;;;;;;;117.80;16.13;;;;;;;25.42;45.75;96149.41;2079232;28;20199;-62
2022/06/30 08:58:22;;;;;;;115.18;11.93;;;;;;;25.91;44.71;96156.34;2098373;28;20203;-63
2022/06/30 08:59:24;;;;;;;114.30;9.10;;;;;;;26.04;44.89;96155.75;2095547;28;20204;-61
2022/06/30 09:00:30;;;;;;;113.35;10.77;;;;;;;26.36;43.19;96150.34;2091109;28;20647;-62
2022/06/30 09:01:32;;;;;;;114.65;10.52;;;;;;;26.40;44.37;96149.81;2092903;28;20214;-63
2022/06/30 09:02:34;;;;;;;111.40;10.02;;;;;;;26.93;42.84;96154.41;2082443;28;20563;-62
2022/06/30 09:03:38;;;;;;;117.30;11.25;;;;;;;26.82;42.93;96153.00;2090945;28;20874;-62
2022/06/30 09:04:39;;;;;;;113.30;9.80;;;;;;;27.23;42.52;96150.91;2090947;28;20239;-62
2022/06/30 09:05:44;;;;;;;117.45;9.30;;;;;;;27.89;41.21;96153.59;2093018;28;20711;-62
2022/06/30 09:06:46;;;;;;;114.43;11.88;;;;;;;27.77;41.20;96158.63;2093325;28;20608;-62
2022/06/30 09:07:48;;;;;;;118.85;12.68;;;;;;;27.54;41.14;96156.06;2080282;28;20224;-62
2022/06/30 09:09:09;;;;;;;110.47;9.10;;;;;;;27.75;40.92;96162.50;2094112;28;20235;-62
2022/06/30 09:10:11;;;;;;;113.22;11.82;;;;;;;28.06;40.91;96148.84;2092182;28;20835;-62
2022/06/30 09:11:13;;;;;;;120.35;14.05;;;;;;;28.64;41.14;96154.09;2087809;28;20205;-62
2022/06/30 09:12:16;;;;;;;114.40;14.15;;;;;;;29.14;39.13;96153.25;2091786;28;20195;-62
2022/06/30 09:13:18;;;;;;;118.05;14.57;;;;;;;29.37;39.78;96147.63;2091534;28;20218;-63
2022/06/30 09:14:40;;;;;;;116.57;17.40;;;;;;;28.31;41.94;96154.66;2087564;28;20523;-62
2022/06/30 09:15:42;;;;;;;119.88;17.13;;;;;;;27.41;42.63;96156.72;2090883;28;20200;-61
2022/06/30 09:16:53;;;;;;;122.18;23.17;;;;;;;27.43;44.10;96159.25;2093043;28;20278;-62
2022/06/30 09:17:54;;;;;;;153.77;44.60;;;;;;;28.02;42.72;96151.06;2083381;28;20246;-61
2022/06/30 09:18:59;;;;;;;144.82;38.20;;;;;;;28.42;42.16;96144.44;2095710;28;20192;-62
2022/06/30 09:20:02;;;;;;;129.65;23.45;;;;;;;28.79;41.83;96142.47;2092479;28;20655;-61
2022/06/30 09:45:36;;;;;;;163.65;54.53;;;;;;;29.31;41.88;96134.97;2092102;27;21054;-60
2022/06/30 09:46:53;;;;;;;137.40;12.07;;;;;;;28.66;40.67;96138.66;2089640;28;20188;-59
2022/06/30 09:47:55;;;;;;;120.22;11.35;;;;;;;27.42;43.85;96130.75;2074214;28;20228;-60
2022/06/30 09:48:56;;;;;;;125.13;27.13;;;;;;;28.04;44.24;96134.78;2087144;28;20193;-60
2022/06/30 09:50:12;;;;;;;128.50;22.20;;;;;;;28.78;42.72;96138.94;2075414;28;20198;-60
2022/06/30 09:51:13;;;;;;;112.43;14.45;;;;;;;27.24;43.75;96139.97;2067874;28;20711;-59
2022/06/30 09:52:26;;;;;;;119.00;15.90;;;;;;;27.14;43.30;96139.44;2070004;28;20205;-60
2022/06/30 09:53:27;;;;;;;116.15;14.07;;;;;;;28.06;42.26;96135.44;2071992;28;20220;-59
2022/06/30 09:54:34;;;;;;;116.47;17.15;;;;;;;27.95;41.73;96138.59;2073064;28;20204;-59
2022/06/30 09:55:40;;;;;;;123.72;16.80;;;;;;;28.45;41.74;96125.25;2070679;28;20197;-60
2022/06/30 09:56:41;;;;;;;117.68;19.77;;;;;;;28.61;41.50;96132.22;2070324;28;20201;-60
2022/06/30 09:57:44;;;;;;;118.22;21.52;;;;;;;28.72;41.61;96099.47;2069595;28;20239;-60
2022/06/30 09:58:46;;;;;;;122.78;22.88;;;;;;;28.22;42.01;96112.88;2083517;28;20201;-59
2022/06/30 10:00:04;;;;;;;126.03;20.30;;;;;;;27.27;43.67;96134.25;2077140;28;20236;-60
2022/06/30 10:01:06;;;;;;;121.10;24.98;;;;;;;26.44;44.29;96126.22;2074737;28;20197;-60
2022/06/30 10:02:10;;;;;;;120.47;24.63;;;;;;;26.57;45.23;96125.59;2076103;28;20194;-62
2022/06/30 10:03:11;;;;;;;118.68;20.60;;;;;;;26.30;46.61;96118.97;2081210;28;20231;-60
2022/06/30 10:04:17;;;;;;;125.57;18.60;;;;;;;26.75;46.69;96119.91;2087560;28;20203;-60
2022/06/30 10:19:51;;;;;;;117.65;16.75;;;;;;;28.73;42.08;96108.34;2083021;28;20557;-62
2022/06/30 10:20:54;;;;;;;121.95;13.70;;;;;;;29.16;39.34;96111.69;2077646;28;20193;-62
2022/06/30 10:21:56;;;;;;;117.63;16.60;;;;;;;27.78;38.91;96117.38;2077616;28;20197;-62
2022/06/30 10:22:57;;;;;;;113.18;10.50;;;;;;;27.80;41.20;96109.13;2068221;28;20255;-62
2022/06/30 10:24:08;;;;;;;116.90;9.10;;;;;;;28.30;39.60;96106.53;2077982;28;20193;-62
2022/06/30 10:25:10;;;;;;;119.63;13.98;;;;;;;27.58;39.48;96103.75;2071230;28;20213;-61
2022/06/30 10:27:12;;;;;;;114.60;9.77;;;;;;;27.12;40.61;96107.47;2070565;28;20194;-62
2022/06/30 10:27:33;;;;;;;114.82;7.88;;;;;;;28.30;40.36;96103.84;2061846;28;20240;-62
2022/06/30 10:28:35;;;;;;;114.30;12.65;;;;;;;28.98;41.71;96114.91;2077208;28;20193;-62
2022/06/30 10:29:40;;;;;;;118.88;13.18;;;;;;;29.35;39.11;96103.16;2075536;28;20189;-62
2022/06/30 10:30:52;;;;;;;115.40;5.53;;;;;;;29.25;37.82;96087.34;2070222;28;20483;-62
2022/06/30 10:32:38;;;;;;;118.10;14.27;;;;;;;29.60;37.77;96108.84;2070346;28;20204;-62
2022/06/30 10:33:46;;;;;;;119.03;20.80;;;;;;;28.82;37.06;96108.00;2059072;28;20230;-61
2022/06/30 10:34:58;;;;;;;111.20;9.57;;;;;;;27.92;40.96;96096.03;2070222;28;20198;-62
2022/06/30 10:36:07;;;;;;;111.68;4.22;;;;;;;29.17;39.23;96099.91;2069845;28;20553;-62
2022/06/30 10:37:26;;;;;;;122.20;21.67;;;;;;;28.58;38.38;96100.34;2069253;28;20213;-62
2022/06/30 10:38:37;;;;;;;114.72;5.75;;;;;;;29.37;38.05;96099.22;2069802;28;20206;-62
2022/06/30 10:39:53;;;;;;;116.03;9.70;;;;;;;29.30;37.52;96107.25;2069531;28;20213;-62
2022/06/30 10:41:11;;;;;;;115.13;15.20;;;;;;;29.16;38.02;96109.00;2070091;28;20664;-61
2022/06/30 10:42:45;;;;;;;118.47;19.00;;;;;;;27.94;40.28;96102.06;2070172;28;20208;-61
2022/06/30 10:44:04;;;;;;;114.43;9.93;;;;;;;28.46;38.92;96105.44;2069618;28;20221;-61
2022/06/30 10:45:26;;;;;;;116.25;10.00;;;;;;;28.97;36.77;96097.13;2068959;28;20806;-61
2022/06/30 10:46:27;;;;;;;123.25;28.55;;;;;;;29.00;36.97;96094.06;2067810;28;20285;-60
2022/06/30 10:47:29;;;;;;;113.05;15.05;;;;;;;29.61;37.17;96088.97;2059792;28;20194;-60
2022/06/30 10:48:53;;;;;;;115.88;6.65;;;;;;;29.97;34.75;96091.34;2069764;28;20578;-60
2022/06/30 10:49:56;;;;;;;117.43;17.10;;;;;;;29.25;38.39;96084.66;2071393;28;20190;-60
2022/06/30 10:50:57;;;;;;;114.40;16.67;;;;;;;30.17;36.47;96092.41;2070124;28;20233;-60
2022/06/30 10:52:18;;;;;;;110.82;10.77;;;;;;;29.40;35.89;96095.31;2070201;28;20431;-60
2022/06/30 10:53:38;;;;;;;116.30;10.63;;;;;;;28.46;36.31;96094.69;2068721;28;20695;-59
2022/06/30 10:54:44;;;;;;;108.83;8.83;;;;;;;28.07;37.72;96087.97;2070248;28;20439;-59
2022/06/30 10:55:45;;;;;;;114.60;18.10;;;;;;;28.56;38.08;96105.09;2070200;28;20431;-60
2022/06/30 10:56:49;;;;;;;108.95;6.47;;;;;;;28.86;34.81;96099.53;2070127;28;20419;-60
2022/06/30 10:58:06;;;;;;;107.10;5.28;;;;;;;28.15;35.70;96090.50;2064676;28;20686;-59
2022/06/30 10:59:10;;;;;;;117.10;14.70;;;;;;;28.27;36.03;96105.06;2077540;28;20204;-59
2022/06/30 11:00:50;;;;;;;113.88;13.88;;;;;;;27.64;37.94;96099.47;2071095;28;20573;-59
2022/06/30 11:02:10;;;;;;;121.10;27.60;;;;;;;27.94;36.49;96102.06;2070403;28;20272;-59
2022/06/30 11:03:30;;;;;;;128.27;32.42;;;;;;;29.17;36.58;96096.41;2066062;28;20217;-60
2022/06/30 11:04:36;;;;;;;122.40;27.75;;;;;;;29.57;35.10;96093.94;2076092;28;20232;-60
2022/06/30 11:05:50;;;;;;;124.93;27.88;;;;;;;29.63;34.44;95939.78;2070226;28;20212;-61
2022/06/30 11:07:01;;;;;;;118.93;23.92;;;;;;;31.37;34.02;96094.97;2070302;28;20236;-60
2022/06/30 11:08:36;;;;;;;111.80;12.85;;;;;;;29.77;33.56;96021.34;2065331;28;20228;-60
2022/06/30 11:09:44;;;;;;;113.40;7.10;;;;;;;30.86;33.14;96093.88;2076724;28;20300;-62
2022/06/30 11:10:48;;;;;;;112.00;4.50;;;;;;;31.31;32.26;96092.31;2076900;28;20193;-62
2022/06/30 11:11:54;;;;;;;104.80;4.27;;;;;;;31.42;31.83;96091.66;2070293;28;20564;-62
2022/06/30 11:12:59;;;;;;;106.93;4.67;;;;;;;30.96;32.06;96079.97;2070707;28;21177;-62
2022/06/30 11:14:00;;;;;;;114.50;5.30;;;;;;;30.35;32.80;96092.63;2070132;28;20775;-62
2022/06/30 11:15:02;;;;;;;109.43;4.53;;;;;;;30.61;32.67;96075.69;2070253;28;20454;-62
2022/06/30 11:16:04;;;;;;;106.40;6.27;;;;;;;30.10;32.89;96082.47;2070217;28;20989;-62
2022/06/30 11:17:17;;;;;;;106.53;3.90;;;;;;;30.47;33.35;96084.75;2070245;28;20435;-62
2022/06/30 11:18:20;;;;;;;103.70;4.00;;;;;;;29.97;34.64;96085.16;2069535;28;20444;-61
2022/06/30 11:19:23;;;;;;;108.30;4.17;;;;;;;30.54;33.52;96080.25;2069849;28;20485;-62
2022/06/30 11:20:25;;;;;;;105.20;3.80;;;;;;;30.98;32.84;96077.88;2069708;28;20423;-62
2022/06/30 11:21:31;;;;;;;102.77;4.30;;;;;;;30.78;32.48;96067.16;2069578;28;20466;-62
2022/06/30 11:22:33;;;;;;;106.07;5.10;;;;;;;30.73;32.59;96085.81;2059739;28;20434;-62
2022/06/30 11:23:46;;;;;;;109.00;4.43;;;;;;;30.33;33.34;96083.13;2069327;28;20428;-62
2022/06/30 11:24:53;;;;;;;103.97;5.43;;;;;;;30.29;33.27;96088.06;2072374;28;20986;-61
2022/06/30 11:27:21;;;;;;;109.30;7.67;;;;;;;29.64;33.26;96072.44;2069817;28;20427;-62
2022/06/30 11:28:23;;;;;;;106.10;4.50;;;;;;;30.42;33.03;96077.31;2069597;28;20483;-62
2022/06/30 11:29:27;;;;;;;106.97;5.07;;;;;;;30.86;32.33;96074.19;2070105;28;20434;-62
2022/06/30 11:30:32;;;;;;;112.87;3.90;;;;;;;30.83;33.03;96072.75;2068591;28;20562;-62
2022/06/30 11:31:35;;;;;;;105.77;4.73;;;;;;;31.48;32.15;96079.16;2063049;28;20424;-62
2022/06/30 11:32:38;;;;;;;116.13;4.67;;;;;;;32.25;31.58;96079.19;2064269;28;20539;-62
2022/06/30 11:33:55;;;;;;;103.27;5.33;;;;;;;32.04;31.57;96073.06;2064624;28;20825;-62
2022/06/30 11:34:57;;;;;;;109.23;3.97;;;;;;;32.68;31.60;96075.72;2063830;28;20432;-62
2022/06/30 11:36:04;;;;;;;102.90;6.37;;;;;;;32.19;31.41;96077.38;2063336;28;20435;-62
2022/06/30 11:37:10;;;;;;;109.30;7.13;;;;;;;32.77;30.14;96076.25;2064525;28;20436;-62
2022/06/30 11:54:14;;;;;;;108.57;5.07;;;;;;;30.64;31.99;96065.50;2083387;28;20554;-61
2022/06/30 11:55:19;;;;;;;108.80;5.87;;;;;;;30.83;31.98;96063.81;2077371;28;20434;-61
2022/06/30 11:56:20;;;;;;;106.30;5.20;;;;;;;30.86;31.66;96066.09;2076035;28;20430;-61
2022/06/30 11:57:25;;;;;;;108.27;7.87;;;;;;;30.91;30.39;96056.34;2073443;28;20430;-61
2022/06/30 11:58:29;;;;;;;109.37;8.07;;;;;;;30.72;31.06;96052.66;2086384;28;20422;-60
2022/06/30 11:59:30;;;;;;;108.37;5.40;;;;;;;31.09;31.25;96054.88;2084481;28;20429;-60
2022/06/30 12:00:33;;;;;;;104.90;7.70;;;;;;;31.37;30.84;96064.50;2070490;28;20435;-59
2022/06/30 12:01:35;;;;;;;108.80;8.53;;;;;;;31.02;31.68;96052.16;2078746;28;20433;-60
2022/06/30 12:02:39;;;;;;;114.23;6.90;;;;;;;30.85;32.22;96054.47;2063928;28;20468;-59
2022/06/30 12:03:43;;;;;;;109.97;9.50;;;;;;;30.85;32.08;96056.34;2062265;28;20449;-59
2022/06/30 12:04:49;;;;;;;107.90;9.53;;;;;;;30.99;32.19;96052.56;2062471;28;20520;-59
2022/06/30 12:05:54;;;;;;;105.83;9.90;;;;;;;30.69;31.67;96047.69;2062075;28;20437;-60
2022/06/30 12:06:56;;;;;;;111.57;10.70;;;;;;;30.74;31.65;96050.56;2070298;28;20850;-60
2022/06/30 12:07:57;;;;;;;104.07;4.93;;;;;;;30.72;32.81;96057.22;2071983;28;20480;-59
2022/06/30 12:08:59;;;;;;;107.20;5.10;;;;;;;30.83;32.85;96043.09;2086511;28;20535;-59
2022/06/30 12:10:02;;;;;;;103.77;4.57;;;;;;;30.40;34.10;96048.94;2074952;28;20445;-60
2022/06/30 12:11:05;;;;;;;107.93;6.20;;;;;;;29.72;34.73;96041.81;2066820;28;20432;-59
2022/06/30 12:12:08;;;;;;;105.13;5.10;;;;;;;29.41;35.00;96048.59;2069021;28;20424;-59
2022/06/30 12:13:17;;;;;;;110.10;5.27;;;;;;;28.66;35.98;96050.03;2069382;28;20493;-59
2022/06/30 12:14:19;;;;;;;108.80;6.97;;;;;;;28.97;36.49;96048.75;2070836;28;20466;-59
2022/06/30 12:15:22;;;;;;;109.77;8.37;;;;;;;29.93;34.19;96046.25;2070545;28;20435;-60
2022/06/30 12:16:25;;;;;;;107.70;9.20;;;;;;;30.77;33.64;96043.94;2070168;28;20894;-60
2022/06/30 12:17:35;;;;;;;109.30;5.67;;;;;;;31.30;32.24;96045.66;2061669;28;20431;-59
2022/06/30 12:18:37;;;;;;;106.40;7.30;;;;;;;30.94;33.35;96038.91;2086131;28;20971;-60
2022/06/30 12:19:44;;;;;;;111.13;6.43;;;;;;;31.09;33.47;96033.31;2079654;28;20434;-60
2022/06/30 12:20:46;;;;;;;106.07;5.43;;;;;;;31.54;32.95;96046.78;2069752;28;20458;-60
2022/06/30 12:21:49;;;;;;;117.73;7.73;;;;;;;31.64;31.94;96048.22;2070292;28;20454;-60
2022/06/30 12:22:52;;;;;;;118.60;5.27;;;;;;;30.24;34.00;96051.00;2069485;28;20476;-60
2022/06/30 12:23:54;;;;;;;106.87;4.10;;;;;;;31.12;33.57;96049.03;2086248;28;20429;-60
2022/06/30 12:24:56;;;;;;;114.57;7.10;;;;;;;31.51;31.52;96044.50;2075946;28;20911;-60
2022/06/30 12:25:58;;;;;;;111.63;5.70;;;;;;;30.05;33.56;96041.88;2066347;28;20435;-59
2022/06/30 12:27:00;;;;;;;109.67;13.07;;;;;;;30.41;31.77;96027.19;2069910;28;20476;-61
2022/06/30 12:28:03;;;;;;;120.70;5.33;;;;;;;30.52;33.62;96043.78;2073046;28;20817;-60
2022/06/30 12:29:13;;;;;;;111.77;8.20;;;;;;;30.36;33.39;96045.84;2086016;28;20460;-59
2022/06/30 12:30:24;;;;;;;111.30;9.37;;;;;;;30.82;32.21;96019.03;2070970;28;20783;-59
2022/06/30 12:31:28;;;;;;;115.83;15.70;;;;;;;31.20;30.70;96039.91;2070110;28;21119;-60
2022/06/30 12:32:30;;;;;;;107.60;14.63;;;;;;;31.02;31.00;96037.84;2069538;28;20945;-60
2022/06/30 12:33:39;;;;;;;106.67;12.97;;;;;;;31.35;30.46;96032.38;2070116;28;20435;-61
2022/06/30 12:34:55;;;;;;;106.67;10.50;;;;;;;31.39;30.92;96028.19;2069556;28;20427;-60
2022/06/30 12:36:00;;;;;;;111.07;16.80;;;;;;;31.26;30.47;96047.13;2069970;28;20784;-60
2022/06/30 12:37:03;;;;;;;110.30;17.97;;;;;;;31.68;28.91;96047.56;2068879;28;20427;-60
2022/06/30 12:38:16;;;;;;;110.97;16.67;;;;;;;31.71;28.32;96049.81;2073221;28;20489;-60
2022/06/30 12:39:18;;;;;;;110.60;16.00;;;;;;;30.74;29.38;96033.56;2085995;28;20437;-60
2022/06/30 12:40:26;;;;;;;108.00;11.00;;;;;;;31.25;28.60;96046.28;2070287;28;20439;-60
2022/06/30 12:41:28;;;;;;;107.73;11.27;;;;;;;30.99;28.95;96043.66;2069657;28;20969;-59
2022/06/30 12:42:48;;;;;;;109.70;16.77;;;;;;;31.17;29.93;96040.31;2063019;28;20438;-60
2022/06/30 12:43:51;;;;;;;106.60;14.47;;;;;;;31.74;28.84;96045.88;2085703;28;20425;-60
2022/06/30 12:44:53;;;;;;;110.87;17.17;;;;;;;31.65;29.58;96042.59;2075608;28;20427;-60
2022/06/30 12:46:04;;;;;;;116.30;18.53;;;;;;;32.00;29.29;96041.31;2070195;28;20784;-60
2022/06/30 12:47:07;;;;;;;110.10;17.67;;;;;;;31.81;29.04;96045.81;2069330;28;20434;-60
2022/06/30 12:48:10;;;;;;;109.87;17.77;;;;;;;31.82;29.06;96042.06;2067173;28;20502;-60
2022/06/30 12:49:22;;;;;;;111.20;19.00;;;;;;;31.90;29.65;96037.25;2069715;28;20426;-60
2022/06/30 12:50:23;;;;;;;108.53;16.43;;;;;;;31.44;29.89;96027.56;2069064;28;20448;-60
2022/06/30 12:51:28;;;;;;;107.17;13.87;;;;;;;31.12;29.82;96040.94;2070170;28;21421;-61
2022/06/30 12:52:32;;;;;;;113.17;19.17;;;;;;;31.08;29.89;96035.19;2063709;28;20830;-61
2022/06/30 12:53:33;;;;;;;123.40;18.30;;;;;;;30.83;30.77;96028.78;2085547;28;20538;-61
2022/06/30 12:54:35;;;;;;;109.83;16.77;;;;;;;30.59;31.75;96034.66;2081048;28;20962;-61
2022/06/30 12:56:08;;;;;;;112.33;19.87;;;;;;;30.64;31.57;96033.19;2069853;28;20432;-61
2022/06/30 12:57:10;;;;;;;109.87;18.43;;;;;;;30.61;31.42;96037.13;2069922;28;20431;-60
2022/06/30 12:58:13;;;;;;;112.70;18.90;;;;;;;30.60;31.38;96036.31;2074920;28;20584;-60
2022/06/30 12:59:17;;;;;;;107.77;14.50;;;;;;;30.74;31.18;96017.41;2085935;28;20433;-60
2022/06/30 13:00:18;;;;;;;112.10;20.80;;;;;;;31.54;29.93;96027.06;2069881;28;20438;-60
2022/06/30 13:01:26;;;;;;;109.90;19.60;;;;;;;32.11;29.58;96037.09;2070211;28;20943;-60
2022/06/30 13:02:37;;;;;;;110.70;16.27;;;;;;;30.94;31.95;96034.38;2062446;28;20487;-60
2022/06/30 13:04:00;;;;;;;110.37;14.13;;;;;;;30.55;33.11;96040.66;2085323;28;20472;-60
2022/06/30 13:05:02;;;;;;;105.57;5.80;;;;;;;31.90;31.45;96031.84;2072064;28;20439;-60
2022/06/30 13:06:03;;;;;;;110.97;14.90;;;;;;;31.78;30.51;96033.59;2063580;28;20432;-60
2022/06/30 13:07:06;;;;;;;110.10;16.50;;;;;;;30.93;31.99;96021.94;2064671;28;20580;-60
2022/06/30 13:08:07;;;;;;;114.20;11.50;;;;;;;30.23;33.07;96027.00;2068243;28;20473;-60
2022/06/30 13:09:12;;;;;;;112.20;4.63;;;;;;;30.75;33.38;96036.06;2080444;28;20845;-59
2022/06/30 13:10:13;;;;;;;106.77;6.40;;;;;;;30.74;33.36;96020.94;2065698;28;20427;-59
2022/06/30 13:11:22;;;;;;;110.47;8.80;;;;;;;30.36;34.02;96027.00;2064631;28;20424;-60
2022/06/30 13:12:24;;;;;;;104.00;6.27;;;;;;;30.04;34.08;96018.72;2057155;28;20428;-60
2022/06/30 13:13:25;;;;;;;108.57;6.60;;;;;;;30.39;33.48;95999.63;2080349;28;20422;-60
2022/06/30 13:14:30;;;;;;;106.00;5.20;;;;;;;30.69;33.43;96015.38;2077665;28;20454;-60
2022/06/30 13:15:32;;;;;;;103.97;6.00;;;;;;;30.86;32.35;95999.56;2064181;28;20487;-60
2022/06/30 13:16:34;;;;;;;107.87;5.70;;;;;;;31.80;32.21;96011.81;2064033;28;20424;-60
2022/06/30 13:17:36;;;;;;;107.37;6.00;;;;;;;32.81;30.54;96009.06;2060236;28;20510;-59
2022/06/30 13:18:38;;;;;;;107.43;6.93;;;;;;;33.58;29.59;96005.03;2080345;28;20430;-60
2022/06/30 13:19:40;;;;;;;108.87;13.70;;;;;;;33.63;28.88;96007.88;2074500;28;20927;-60
2022/06/30 13:20:42;;;;;;;112.53;13.00;;;;;;;34.10;28.80;96007.19;2063637;28;20448;-61
2022/06/30 13:21:47;;;;;;;113.57;22.23;;;;;;;34.22;28.71;96008.03;2064713;28;20435;-61
2022/06/30 13:22:48;;;;;;;113.47;23.97;;;;;;;34.57;27.36;96012.66;2064006;28;20471;-61
2022/06/30 13:23:50;;;;;;;115.43;27.23;;;;;;;33.13;29.14;96000.78;2064757;28;20428;-62
2022/06/30 13:24:51;;;;;;;121.33;26.77;;;;;;;32.68;30.13;96016.25;2064138;28;20424;-62
2022/06/30 13:25:53;;;;;;;121.90;29.77;;;;;;;32.96;29.62;96006.81;2064076;28;20443;-62
2022/06/30 13:26:55;;;;;;;121.00;29.00;;;;;;;32.88;29.64;96007.13;2064577;28;20432;-61
2022/06/30 13:27:57;;;;;;;123.63;30.47;;;;;;;32.76;29.56;95998.97;2065478;28;20470;-62
2022/06/30 13:28:58;;;;;;;114.47;30.17;;;;;;;32.69;30.11;95998.97;2080441;28;20513;-62
2022/06/30 13:30:00;;;;;;;111.70;21.37;;;;;;;32.32;31.11;95984.63;2069054;28;20985;-62
2022/06/30 13:31:02;;;;;;;123.77;30.63;;;;;;;32.27;31.33;95997.97;2064663;28;20432;-61
2022/06/30 13:32:05;;;;;;;110.77;16.13;;;;;;;32.15;31.59;95989.72;2064811;28;20431;-61
2022/06/30 13:33:06;;;;;;;115.07;27.07;;;;;;;32.16;30.51;95991.38;2067898;28;20561;-60
2022/06/30 13:34:11;;;;;;;107.97;15.93;;;;;;;32.27;31.56;95987.97;2080165;28;20472;-61
2022/06/30 13:35:13;;;;;;;110.93;16.97;;;;;;;32.78;30.66;95975.22;2065454;28;20908;-61
2022/06/30 13:36:14;;;;;;;111.73;20.27;;;;;;;33.10;29.90;95991.25;2062872;28;20424;-61
2022/06/30 13:37:16;;;;;;;113.67;26.07;;;;;;;33.33;29.50;95985.19;2060572;28;20439;-62
2022/06/30 13:38:17;;;;;;;121.43;28.93;;;;;;;32.89;30.57;95984.47;2079991;28;20449;-61
2022/06/30 13:39:19;;;;;;;114.60;18.60;;;;;;;32.65;31.00;95981.56;2079820;28;20433;-61
2022/06/30 13:40:20;;;;;;;107.70;16.47;;;;;;;32.08;31.55;95992.47;2064694;28;20428;-61
2022/06/30 13:41:27;;;;;;;109.47;21.10;;;;;;;31.14;32.88;95978.75;2064646;28;20482;-61
2022/06/30 13:42:28;;;;;;;108.47;11.10;;;;;;;30.82;33.80;95990.25;2063755;28;20444;-61
2022/06/30 13:43:30;;;;;;;106.03;8.20;;;;;;;31.02;33.42;95957.00;2064696;28;20431;-61
2022/06/30 13:44:31;;;;;;;103.90;10.60;;;;;;;31.27;32.36;95992.16;2064677;28;20428;-62
2022/06/30 13:45:33;;;;;;;105.90;8.50;;;;;;;31.15;32.87;95981.22;2064436;28;20666;-61
2022/06/30 13:46:36;;;;;;;109.60;8.07;;;;;;;30.40;33.55;95987.00;2062305;28;20827;-61
2022/06/30 13:47:37;;;;;;;103.57;5.93;;;;;;;30.22;33.96;95980.41;2052876;28;21009;-61
2022/06/30 13:48:39;;;;;;;103.10;4.50;;;;;;;30.50;34.04;95982.06;2079751;28;20426;-61
2022/06/30 13:49:43;;;;;;;104.97;5.30;;;;;;;30.00;34.75;95985.16;2074152;28;20966;-60
2022/06/30 13:50:46;;;;;;;107.00;4.97;;;;;;;30.13;34.83;95987.03;2064248;28;20432;-61
2022/06/30 13:51:47;;;;;;;111.70;4.73;;;;;;;29.75;35.19;95988.44;2064643;28;20982;-61
2022/06/30 13:52:49;;;;;;;105.67;4.03;;;;;;;30.12;35.01;95988.09;2063587;28;20524;-61
2022/06/30 13:53:51;;;;;;;104.10;4.53;;;;;;;30.44;34.28;95988.25;2079884;28;20462;-61
2022/06/30 13:54:52;;;;;;;103.90;4.83;;;;;;;29.78;34.66;95982.66;2070821;28;20945;-61
2022/06/30 13:55:54;;;;;;;112.93;5.73;;;;;;;29.33;36.03;95985.03;2064573;28;20435;-63
2022/06/30 13:56:56;;;;;;;110.00;6.27;;;;;;;29.95;35.16;95974.19;2062417;28;20439;-61
2022/06/30 13:57:57;;;;;;;109.37;6.40;;;;;;;30.17;35.21;95984.75;2065642;28;20470;-61
2022/06/30 13:58:59;;;;;;;107.47;6.10;;;;;;;30.67;34.14;95979.72;2080261;28;20437;-61
2022/06/30 14:00:02;;;;;;;108.77;6.00;;;;;;;30.59;33.98;95978.09;2068913;28;20432;-61